Time,TemperatureF,DewpointF,PressureIn,WindDirection,WindDirectionDegrees,WindSpeedMPH,WindSpeedGustMPH,Humidity,HourlyPrecipIn,Conditions,Clouds,dailyrainin,SoftwareType,DateUTC
2013-05-09 00:01:00,54.0,53.1,30.00,West,273,0.0,1.0,97,0.00,,,1.25,meteohub,2013-05-09 04:01:00,
2013-05-09 00:02:00,54.0,53.1,30.00,West,273,0.0,1.0,97,0.00,,,1.25,meteohub,2013-05-09 04:02:00,
2013-05-09 00:07:00,54.0,53.1,30.00,West,271,0.0,1.0,97,0.00,,,0.00,meteohub,2013-05-09 04:07:00,
2013-05-09 00:12:00,54.0,53.1,30.00,West,271,0.0,0.0,97,0.00,,,0.00,meteohub,2013-05-09 04:12:00,
2013-05-09 00:17:00,54.0,53.4,30.00,West,271,0.0,0.0,98,0.00,,,0.00,meteohub,2013-05-09 04:17:00,
2013-05-09 00:22:00,54.1,53.6,30.00,West,271,0.0,0.0,98,0.00,,,0.00,meteohub,2013-05-09 04:22:00,
2013-05-09 00:27:00,54.1,53.6,30.00,West,271,0.0,0.0,98,0.00,,,0.00,meteohub,2013-05-09 04:27:00,
2013-05-09 00:32:00,54.3,53.8,30.00,East,80,0.0,0.0,98,0.00,,,0.00,meteohub,2013-05-09 04:32:00,
2013-05-09 00:37:00,54.3,53.8,30.00,East,80,0.0,1.0,98,0.00,,,0.00,meteohub,2013-05-09 04:37:00,
2013-05-09 00:42:00,54.5,54.0,30.00,East,80,0.0,1.0,98,0.00,,,0.00,meteohub,2013-05-09 04:42:00,
2013-05-09 00:47:00,54.5,54.0,30.00,East,80,0.0,1.0,98,0.00,,,0.00,meteohub,2013-05-09 04:47:00,
2013-05-09 00:52:00,54.5,54.0,29.99,East,80,0.0,1.0,98,0.00,,,0.00,meteohub,2013-05-09 04:52:00,
2013-05-09 00:57:00,54.7,54.1,29.99,East,80,0.0,1.0,98,0.00,,,0.00,meteohub,2013-05-09 04:57:00,
2013-05-09 01:02:00,54.7,54.1,29.99,East,79,0.0,1.0,98,0.00,,,0.00,meteohub,2013-05-09 05:02:00,
2013-05-09 01:07:00,54.7,54.1,29.99,East,80,0.0,1.0,98,0.00,,,0.00,meteohub,2013-05-09 05:07:00,
2013-05-09 01:12:00,54.7,54.1,29.99,East,79,0.0,1.0,98,0.00,,,0.00,meteohub,2013-05-09 05:12:00,
2013-05-09 01:17:00,54.7,54.1,29.98,East,80,0.0,1.0,98,0.00,,,0.00,meteohub,2013-05-09 05:17:00,
2013-05-09 01:22:00,54.7,54.1,29.98,East,80,0.0,0.0,98,0.00,,,0.00,meteohub,2013-05-09 05:22:00,
2013-05-09 01:27:00,54.9,54.3,29.98,East,93,0.0,2.0,98,0.00,,,0.00,meteohub,2013-05-09 05:27:00,
2013-05-09 01:32:00,54.9,54.3,29.98,West,269,0.0,2.0,98,0.00,,,0.00,meteohub,2013-05-09 05:32:00,
2013-05-09 01:37:00,55.0,54.5,29.98,West,269,0.0,2.0,98,0.00,,,0.00,meteohub,2013-05-09 05:37:00,
2013-05-09 01:42:00,55.0,54.5,29.97,West,269,0.0,1.0,98,0.00,,,0.00,meteohub,2013-05-09 05:42:00,
2013-05-09 01:47:00,55.0,54.5,29.97,West,269,0.0,1.0,98,0.00,,,0.00,meteohub,2013-05-09 05:47:00,
2013-05-09 01:52:00,55.2,54.7,29.97,West,269,0.0,0.0,98,0.00,,,0.00,meteohub,2013-05-09 05:52:00,
2013-05-09 01:57:00,55.2,54.7,29.97,West,269,0.0,0.0,98,0.00,,,0.00,meteohub,2013-05-09 05:57:00,
2013-05-09 02:02:00,55.2,54.7,29.97,West,269,0.0,0.0,98,0.00,,,0.00,meteohub,2013-05-09 06:02:00,
2013-05-09 02:07:00,55.4,54.9,29.97,West,269,0.0,0.0,98,0.00,,,0.00,meteohub,2013-05-09 06:07:00,
2013-05-09 02:12:00,55.4,54.9,29.97,West,269,0.0,0.0,98,0.00,,,0.00,meteohub,2013-05-09 06:12:00,
2013-05-09 02:17:00,55.6,55.0,29.97,West,269,0.0,0.0,98,0.00,,,0.00,meteohub,2013-05-09 06:17:00,
2013-05-09 02:22:00,55.6,55.0,29.96,West,269,0.0,0.0,98,0.00,,,0.00,meteohub,2013-05-09 06:22:00,
2013-05-09 02:27:00,55.6,55.0,29.96,West,268,0.0,0.0,98,0.00,,,0.00,meteohub,2013-05-09 06:27:00,
2013-05-09 02:32:00,55.6,55.0,29.96,West,269,0.0,0.0,98,0.00,,,0.00,meteohub,2013-05-09 06:32:00,
2013-05-09 02:37:00,55.6,55.0,29.96,West,269,0.0,0.0,98,0.00,,,0.00,meteohub,2013-05-09 06:37:00,
2013-05-09 02:42:00,55.6,55.0,29.96,West,269,0.0,1.0,98,0.00,,,0.00,meteohub,2013-05-09 06:42:00,
2013-05-09 02:46:00,55.6,55.0,29.96,West,269,0.0,1.0,98,0.00,,,0.00,meteohub,2013-05-09 06:46:00,
2013-05-09 02:51:00,55.6,55.0,29.96,West,269,0.0,1.0,98,0.00,,,0.00,meteohub,2013-05-09 06:51:00,
2013-05-09 02:56:00,55.6,55.0,29.96,West,269,0.0,0.0,98,0.00,,,0.00,meteohub,2013-05-09 06:56:00,
2013-05-09 03:02:00,55.6,55.0,29.96,West,269,0.0,0.0,98,0.00,,,0.00,meteohub,2013-05-09 07:02:00,
2013-05-09 03:07:00,55.6,55.0,29.96,West,270,0.0,0.0,98,0.00,,,0.00,meteohub,2013-05-09 07:07:00,
2013-05-09 03:12:00,55.6,55.0,29.96,West,269,0.0,0.0,98,0.00,,,0.00,meteohub,2013-05-09 07:12:00,
2013-05-09 03:17:00,55.6,55.0,29.96,WSW,249,0.0,0.0,98,0.00,,,0.00,meteohub,2013-05-09 07:17:00,
2013-05-09 03:22:00,55.6,55.0,29.95,ENE,77,0.0,0.0,98,0.00,,,0.00,meteohub,2013-05-09 07:22:00,
2013-05-09 03:27:00,55.6,55.0,29.95,ENE,77,0.0,0.0,98,0.00,,,0.00,meteohub,2013-05-09 07:27:00,
2013-05-09 03:32:00,55.2,54.7,29.95,West,273,0.0,0.0,98,0.00,,,0.00,meteohub,2013-05-09 07:32:00,
2013-05-09 03:37:00,55.2,54.7,29.95,East,84,0.0,1.0,98,0.00,,,0.00,meteohub,2013-05-09 07:37:00,
2013-05-09 03:42:00,55.0,54.5,29.95,East,85,0.0,2.0,98,0.00,,,0.00,meteohub,2013-05-09 07:42:00,
2013-05-09 03:47:00,54.9,54.3,29.95,East,85,0.0,2.0,98,0.00,,,0.00,meteohub,2013-05-09 07:47:00,
2013-05-09 03:52:00,54.9,54.3,29.95,East,86,0.0,1.0,98,0.00,,,0.00,meteohub,2013-05-09 07:52:00,
2013-05-09 03:57:00,54.9,54.3,29.94,East,87,0.0,0.0,98,0.00,,,0.00,meteohub,2013-05-09 07:57:00,
2013-05-09 04:02:00,54.9,54.3,29.94,East,87,0.0,0.0,98,0.00,,,0.00,meteohub,2013-05-09 08:02:00,
2013-05-09 04:07:00,54.7,54.1,29.94,East,88,0.0,0.0,98,0.00,,,0.00,meteohub,2013-05-09 08:07:00,
2013-05-09 04:12:00,54.7,54.1,29.94,East,96,0.0,0.0,98,0.00,,,0.00,meteohub,2013-05-09 08:12:00,
2013-05-09 04:17:00,54.9,54.3,29.94,East,96,0.0,0.0,98,0.00,,,0.00,meteohub,2013-05-09 08:17:00,
2013-05-09 04:22:00,54.9,54.3,29.94,East,96,0.0,0.0,98,0.00,,,0.00,meteohub,2013-05-09 08:22:00,
2013-05-09 04:27:00,54.9,54.3,29.94,West,276,0.0,0.0,98,0.00,,,0.00,meteohub,2013-05-09 08:27:00,
2013-05-09 04:32:00,54.9,54.3,29.94,West,277,0.0,0.0,98,0.00,,,0.00,meteohub,2013-05-09 08:32:00,
2013-05-09 04:37:00,54.9,54.3,29.94,West,277,0.0,0.0,98,0.00,,,0.00,meteohub,2013-05-09 08:37:00,
2013-05-09 04:42:00,54.9,54.3,29.94,West,276,0.0,0.0,98,0.00,,,0.00,meteohub,2013-05-09 08:42:00,
2013-05-09 04:47:00,54.9,54.3,29.94,West,277,0.0,0.0,98,0.00,,,0.00,meteohub,2013-05-09 08:47:00,
2013-05-09 04:52:00,54.9,54.3,29.94,West,277,0.0,0.0,98,0.00,,,0.00,meteohub,2013-05-09 08:52:00,
2013-05-09 04:57:00,54.9,54.3,29.94,West,276,0.0,0.0,98,0.00,,,0.00,meteohub,2013-05-09 08:57:00,
2013-05-09 05:02:00,54.7,54.1,29.94,West,276,0.0,0.0,98,0.00,,,0.00,meteohub,2013-05-09 09:02:00,
2013-05-09 05:07:00,54.7,54.1,29.94,West,277,0.0,0.0,98,0.00,,,0.00,meteohub,2013-05-09 09:07:00,
2013-05-09 05:12:00,54.7,54.1,29.94,West,276,0.0,0.0,98,0.00,,,0.00,meteohub,2013-05-09 09:12:00,
2013-05-09 05:17:00,54.7,54.1,29.94,North,359,0.0,0.0,98,0.00,,,0.00,meteohub,2013-05-09 09:17:00,
2013-05-09 05:22:00,54.7,54.1,29.94,ENE,71,0.0,0.0,98,0.00,,,0.00,meteohub,2013-05-09 09:22:00,
2013-05-09 05:27:00,54.7,54.1,29.94,ENE,70,0.0,0.0,98,0.00,,,0.00,meteohub,2013-05-09 09:27:00,
2013-05-09 05:32:00,54.9,54.3,29.94,ENE,70,0.0,0.0,98,0.00,,,0.00,meteohub,2013-05-09 09:32:00,
2013-05-09 05:37:00,54.9,54.3,29.94,ENE,70,0.0,0.0,98,0.00,,,0.00,meteohub,2013-05-09 09:37:00,
2013-05-09 05:41:00,54.9,54.3,29.94,East,91,0.0,0.0,98,0.00,,,0.00,meteohub,2013-05-09 09:41:00,
2013-05-09 05:46:00,54.9,54.3,29.94,East,91,0.0,0.0,98,0.00,,,0.00,meteohub,2013-05-09 09:46:00,
2013-05-09 05:51:00,54.9,54.3,29.94,East,92,0.0,0.0,98,0.00,,,0.00,meteohub,2013-05-09 09:51:00,
2013-05-09 05:57:00,54.7,54.1,29.94,East,92,0.0,0.0,98,0.00,,,0.00,meteohub,2013-05-09 09:57:00,
2013-05-09 06:02:00,54.7,54.1,29.95,East,91,0.0,0.0,98,0.00,,,0.00,meteohub,2013-05-09 10:02:00,
2013-05-09 06:07:00,54.7,54.1,29.95,East,91,0.0,0.0,98,0.00,,,0.00,meteohub,2013-05-09 10:07:00,
2013-05-09 06:12:00,54.7,54.1,29.94,East,98,0.0,0.0,98,0.01,,,0.01,meteohub,2013-05-09 10:12:00,
2013-05-09 06:17:00,54.7,54.1,29.94,East,84,0.0,4.0,98,0.01,,,0.01,meteohub,2013-05-09 10:17:00,
2013-05-09 06:22:00,54.7,54.1,29.95,SSE,149,0.0,4.0,98,0.01,,,0.01,meteohub,2013-05-09 10:22:00,
2013-05-09 06:27:00,54.7,54.1,29.95,SSE,149,0.0,4.0,98,0.02,,,0.02,meteohub,2013-05-09 10:27:00,
2013-05-09 06:32:00,54.7,54.1,29.95,SSE,149,0.0,0.0,98,0.02,,,0.02,meteohub,2013-05-09 10:32:00,
2013-05-09 06:37:00,54.9,54.3,29.95,South,171,0.0,0.0,98,0.02,,,0.02,meteohub,2013-05-09 10:37:00,
2013-05-09 06:42:00,54.9,54.3,29.95,South,171,0.0,0.0,98,0.02,,,0.02,meteohub,2013-05-09 10:42:00,
2013-05-09 06:47:00,54.9,54.3,29.95,South,170,0.0,0.0,98,0.02,,,0.02,meteohub,2013-05-09 10:47:00,
2013-05-09 06:52:00,54.9,54.3,29.95,WNW,287,0.0,0.0,98,0.02,,,0.02,meteohub,2013-05-09 10:52:00,
2013-05-09 06:57:00,54.9,54.3,29.94,WNW,288,0.0,0.0,98,0.02,,,0.02,meteohub,2013-05-09 10:57:00,
2013-05-09 07:02:00,54.9,54.3,29.94,East,86,0.0,1.0,98,0.02,,,0.02,meteohub,2013-05-09 11:02:00,
2013-05-09 07:06:00,54.9,54.3,29.94,East,87,0.0,1.0,98,0.01,,,0.02,meteohub,2013-05-09 11:06:00,
2013-05-09 07:11:00,54.9,54.3,29.94,East,87,0.0,1.0,98,0.01,,,0.02,meteohub,2013-05-09 11:11:00,
2013-05-09 07:16:00,55.0,54.5,29.94,ENE,76,0.0,0.0,98,0.01,,,0.02,meteohub,2013-05-09 11:16:00,
2013-05-09 07:22:00,55.0,54.5,29.94,ENE,78,0.0,0.0,98,0.01,,,0.02,meteohub,2013-05-09 11:22:00,
2013-05-09 07:27:00,55.0,54.5,29.94,ENE,78,0.0,0.0,98,0.00,,,0.02,meteohub,2013-05-09 11:27:00,
2013-05-09 07:32:00,55.0,54.5,29.94,East,83,0.0,0.0,98,0.00,,,0.02,meteohub,2013-05-09 11:32:00,
2013-05-09 07:37:00,55.2,54.7,29.94,East,84,0.0,0.0,98,0.00,,,0.02,meteohub,2013-05-09 11:37:00,
2013-05-09 07:42:00,55.4,54.9,29.95,East,91,0.0,0.0,98,0.00,,,0.02,meteohub,2013-05-09 11:42:00,
2013-05-09 07:47:00,55.4,54.9,29.94,East,91,0.0,0.0,98,0.00,,,0.02,meteohub,2013-05-09 11:47:00,
2013-05-09 07:52:00,55.6,55.0,29.95,East,90,0.0,0.0,98,0.00,,,0.02,meteohub,2013-05-09 11:52:00,
2013-05-09 07:57:00,55.6,55.0,29.95,East,91,0.0,0.0,98,0.00,,,0.02,meteohub,2013-05-09 11:57:00,
2013-05-09 08:01:00,55.6,55.0,29.95,East,91,0.0,0.0,98,0.00,,,0.02,meteohub,2013-05-09 12:01:00,
2013-05-09 08:07:00,55.8,55.2,29.95,East,91,0.0,0.0,98,0.00,,,0.02,meteohub,2013-05-09 12:07:00,
2013-05-09 08:12:00,55.8,55.2,29.95,East,90,0.0,0.0,98,0.01,,,0.03,meteohub,2013-05-09 12:12:00,
2013-05-09 08:17:00,55.8,55.2,29.95,East,90,0.0,0.0,98,0.02,,,0.04,meteohub,2013-05-09 12:17:00,
2013-05-09 08:21:00,55.9,55.4,29.95,East,91,0.0,0.0,98,0.02,,,0.04,meteohub,2013-05-09 12:21:00,
2013-05-09 08:26:00,55.9,55.4,29.95,East,90,0.0,0.0,98,0.03,,,0.05,meteohub,2013-05-09 12:26:00,
2013-05-09 08:31:00,55.9,55.4,29.94,East,89,0.0,0.0,98,0.04,,,0.06,meteohub,2013-05-09 12:31:00,
2013-05-09 08:36:00,56.1,55.6,29.94,East,89,0.0,0.0,98,0.04,,,0.06,meteohub,2013-05-09 12:36:00,
2013-05-09 08:41:00,56.5,56.1,29.94,East,89,0.0,0.0,99,0.04,,,0.06,meteohub,2013-05-09 12:41:00,
2013-05-09 08:46:00,56.5,55.9,29.94,East,95,0.0,0.0,98,0.04,,,0.06,meteohub,2013-05-09 12:46:00,
2013-05-09 08:51:00,56.5,55.9,29.94,East,94,0.0,0.0,98,0.04,,,0.06,meteohub,2013-05-09 12:51:00,
2013-05-09 08:56:00,56.7,56.1,29.94,East,94,0.0,0.0,98,0.04,,,0.06,meteohub,2013-05-09 12:56:00,
2013-05-09 09:01:00,56.7,56.1,29.94,East,94,0.0,0.0,98,0.04,,,0.06,meteohub,2013-05-09 13:01:00,
2013-05-09 09:06:00,56.7,56.1,29.93,East,95,0.0,0.0,98,0.03,,,0.06,meteohub,2013-05-09 13:06:00,
2013-05-09 09:11:00,56.8,56.5,29.93,ESE,120,0.0,0.0,99,0.02,,,0.06,meteohub,2013-05-09 13:11:00,
2013-05-09 09:17:00,57.0,56.5,29.93,ESE,121,0.0,0.0,98,0.02,,,0.06,meteohub,2013-05-09 13:17:00,
2013-05-09 09:22:00,56.8,56.3,29.94,ESE,120,0.0,0.0,98,0.01,,,0.06,meteohub,2013-05-09 13:22:00,
2013-05-09 09:27:00,56.8,56.3,29.93,WSW,256,0.0,0.0,98,0.01,,,0.06,meteohub,2013-05-09 13:27:00,
2013-05-09 09:32:00,56.7,56.1,29.93,WSW,256,0.0,0.0,98,0.00,,,0.06,meteohub,2013-05-09 13:32:00,
2013-05-09 09:37:00,56.7,56.1,29.93,NE,40,0.0,0.0,98,0.00,,,0.06,meteohub,2013-05-09 13:37:00,
2013-05-09 09:42:00,56.7,56.1,29.94,WNW,287,0.0,0.0,98,0.00,,,0.06,meteohub,2013-05-09 13:42:00,
2013-05-09 09:47:00,56.7,56.1,29.94,East,87,0.0,0.0,98,0.00,,,0.06,meteohub,2013-05-09 13:47:00,
2013-05-09 09:52:00,56.5,55.9,29.94,East,85,0.0,0.0,98,0.00,,,0.06,meteohub,2013-05-09 13:52:00,
2013-05-09 09:57:00,56.7,56.1,29.93,ENE,68,0.0,0.0,98,0.00,,,0.06,meteohub,2013-05-09 13:57:00,
2013-05-09 10:02:00,56.8,56.3,29.93,WNW,282,0.0,0.0,98,0.00,,,0.06,meteohub,2013-05-09 14:02:00,
2013-05-09 10:07:00,57.0,56.5,29.93,ENE,77,0.0,0.0,98,0.00,,,0.06,meteohub,2013-05-09 14:07:00,
2013-05-09 10:12:00,57.0,56.5,29.93,NW,311,0.0,0.0,98,0.00,,,0.06,meteohub,2013-05-09 14:12:00,
2013-05-09 10:17:00,57.0,56.5,29.93,ENE,65,0.0,0.0,98,0.00,,,0.06,meteohub,2013-05-09 14:17:00,
2013-05-09 10:22:00,57.0,56.5,29.93,WSW,239,0.0,0.0,98,0.00,,,0.06,meteohub,2013-05-09 14:22:00,
2013-05-09 10:27:00,57.0,56.5,29.93,East,84,0.0,1.0,98,0.00,,,0.06,meteohub,2013-05-09 14:27:00,
2013-05-09 10:32:00,56.8,56.3,29.93,West,278,0.0,4.0,98,0.00,,,0.06,meteohub,2013-05-09 14:32:00,
2013-05-09 10:37:00,56.8,56.3,29.93,WSW,253,0.0,4.0,98,0.00,,,0.06,meteohub,2013-05-09 14:37:00,
2013-05-09 10:42:00,56.7,56.1,29.94,West,263,0.0,4.0,98,0.01,,,0.07,meteohub,2013-05-09 14:42:00,
2013-05-09 10:47:00,56.8,56.3,29.94,West,264,0.0,1.0,98,0.01,,,0.07,meteohub,2013-05-09 14:47:00,
2013-05-09 10:52:00,56.8,56.3,29.93,ESE,115,0.0,0.0,98,0.03,,,0.09,meteohub,2013-05-09 14:52:00,
2013-05-09 10:57:00,56.8,56.3,29.94,ESE,116,0.0,0.0,98,0.04,,,0.10,meteohub,2013-05-09 14:57:00,
2013-05-09 11:02:00,56.8,56.3,29.93,ESE,116,0.0,0.0,98,0.04,,,0.10,meteohub,2013-05-09 15:02:00,
2013-05-09 11:06:00,56.7,56.1,29.93,ESE,115,0.0,0.0,98,0.07,,,0.13,meteohub,2013-05-09 15:06:00,
2013-05-09 11:11:00,56.7,56.1,29.94,ESE,115,0.0,0.0,98,0.08,,,0.14,meteohub,2013-05-09 15:11:00,
2013-05-09 11:16:00,56.8,56.3,29.93,ESE,115,0.0,0.0,98,0.09,,,0.15,meteohub,2013-05-09 15:16:00,
2013-05-09 11:21:00,56.8,56.3,29.93,ESE,115,0.0,0.0,98,0.11,,,0.17,meteohub,2013-05-09 15:21:00,
2013-05-09 11:26:00,56.8,56.3,29.93,ESE,115,0.0,0.0,98,0.12,,,0.18,meteohub,2013-05-09 15:26:00,
2013-05-09 11:31:00,56.8,56.3,29.93,ESE,114,0.0,0.0,98,0.12,,,0.18,meteohub,2013-05-09 15:31:00,
2013-05-09 11:36:00,56.8,56.3,29.93,ESE,115,0.0,0.0,98,0.12,,,0.19,meteohub,2013-05-09 15:36:00,
2013-05-09 11:41:00,56.8,56.3,29.93,ESE,115,0.0,0.0,98,0.12,,,0.19,meteohub,2013-05-09 15:41:00,
2013-05-09 11:46:00,56.8,56.3,29.92,ESE,115,0.0,0.0,98,0.11,,,0.19,meteohub,2013-05-09 15:46:00,
2013-05-09 11:51:00,57.0,56.5,29.92,ESE,114,0.0,0.0,98,0.11,,,0.20,meteohub,2013-05-09 15:51:00,
2013-05-09 11:57:00,57.0,56.5,29.92,ESE,115,0.0,0.0,98,0.10,,,0.20,meteohub,2013-05-09 15:57:00,
2013-05-09 12:02:00,57.0,56.5,29.92,East,86,0.0,0.0,98,0.10,,,0.21,meteohub,2013-05-09 16:02:00,
2013-05-09 12:07:00,57.0,56.5,29.91,ESE,105,0.0,0.0,98,0.11,,,0.21,meteohub,2013-05-09 16:07:00,
2013-05-09 12:12:00,57.2,56.7,29.91,ESE,106,0.0,0.0,98,0.12,,,0.26,meteohub,2013-05-09 16:12:00,
2013-05-09 12:17:00,57.4,56.8,29.91,East,96,0.0,1.0,98,0.13,,,0.28,meteohub,2013-05-09 16:17:00,
2013-05-09 12:22:00,57.6,57.2,29.91,East,98,0.0,1.0,99,0.12,,,0.29,meteohub,2013-05-09 16:22:00,
2013-05-09 12:27:00,57.7,57.4,29.91,East,97,0.0,1.0,99,0.11,,,0.29,meteohub,2013-05-09 16:27:00,
2013-05-09 12:31:00,57.7,57.2,29.91,East,98,0.0,0.0,98,0.12,,,0.30,meteohub,2013-05-09 16:31:00,
2013-05-09 12:37:00,57.7,57.2,29.91,East,93,0.0,0.0,98,0.11,,,0.30,meteohub,2013-05-09 16:37:00,
2013-05-09 12:42:00,57.7,57.2,29.91,East,86,0.0,0.0,98,0.11,,,0.30,meteohub,2013-05-09 16:42:00,
2013-05-09 12:46:00,57.9,57.4,29.91,NNW,337,0.0,0.0,98,0.11,,,0.30,meteohub,2013-05-09 16:46:00,
2013-05-09 12:51:00,57.9,57.4,29.91,NE,49,0.0,0.0,98,0.10,,,0.30,meteohub,2013-05-09 16:51:00,
2013-05-09 12:56:00,58.1,57.6,29.91,East,92,0.0,0.0,98,0.10,,,0.30,meteohub,2013-05-09 16:56:00,
2013-05-09 13:02:00,58.3,57.7,29.91,East,80,0.0,0.0,98,0.09,,,0.30,meteohub,2013-05-09 17:02:00,
2013-05-09 13:07:00,58.3,57.7,29.91,East,85,0.0,0.0,98,0.06,,,0.30,meteohub,2013-05-09 17:07:00,
2013-05-09 13:12:00,58.1,57.6,29.91,East,80,0.0,3.0,98,0.05,,,0.31,meteohub,2013-05-09 17:12:00,
2013-05-09 13:17:00,58.3,57.7,29.91,East,86,0.0,3.0,98,0.02,,,0.31,meteohub,2013-05-09 17:17:00,
2013-05-09 13:22:00,58.3,57.7,29.91,East,86,0.0,3.0,98,0.02,,,0.31,meteohub,2013-05-09 17:22:00,
2013-05-09 13:27:00,58.5,58.1,29.91,SE,141,0.0,1.0,99,0.02,,,0.31,meteohub,2013-05-09 17:27:00,
2013-05-09 13:32:00,58.1,57.6,29.91,WSW,250,0.0,1.0,98,0.01,,,0.31,meteohub,2013-05-09 17:32:00,
2013-05-09 13:37:00,57.6,57.0,29.91,WSW,247,1.0,2.0,98,0.02,,,0.32,meteohub,2013-05-09 17:37:00,
2013-05-09 13:42:00,57.4,56.8,29.91,WSW,248,0.0,2.0,98,0.02,,,0.32,meteohub,2013-05-09 17:42:00,
2013-05-09 13:47:00,57.2,56.7,29.91,WSW,247,0.0,1.0,98,0.03,,,0.33,meteohub,2013-05-09 17:47:00,
2013-05-09 13:52:00,57.2,56.7,29.91,WSW,247,0.0,1.0,98,0.05,,,0.35,meteohub,2013-05-09 17:52:00,
2013-05-09 13:57:00,57.4,56.8,29.91,WSW,247,0.0,0.0,98,0.08,,,0.38,meteohub,2013-05-09 17:57:00,
2013-05-09 14:02:00,57.4,56.8,29.91,WSW,246,0.0,0.0,98,0.11,,,0.41,meteohub,2013-05-09 18:02:00,
2013-05-09 14:07:00,57.0,56.5,29.91,WSW,246,0.0,1.0,98,0.15,,,0.45,meteohub,2013-05-09 18:07:00,
2013-05-09 14:12:00,57.0,56.5,29.91,WSW,249,0.0,1.0,98,0.17,,,0.48,meteohub,2013-05-09 18:12:00,
2013-05-09 14:17:00,57.0,56.5,29.91,WSW,249,0.0,1.0,98,0.23,,,0.54,meteohub,2013-05-09 18:17:00,
2013-05-09 14:22:00,56.8,56.3,29.90,WSW,249,0.0,1.0,98,0.25,,,0.56,meteohub,2013-05-09 18:22:00,
2013-05-09 14:27:00,57.0,56.5,29.90,WSW,249,0.0,0.0,98,0.26,,,0.57,meteohub,2013-05-09 18:27:00,
2013-05-09 14:32:00,57.2,56.7,29.90,WSW,249,0.0,0.0,98,0.27,,,0.58,meteohub,2013-05-09 18:32:00,
2013-05-09 14:37:00,57.2,56.7,29.90,WSW,249,0.0,0.0,98,0.27,,,0.59,meteohub,2013-05-09 18:37:00,
2013-05-09 14:42:00,57.2,56.7,29.90,WSW,249,0.0,0.0,98,0.28,,,0.60,meteohub,2013-05-09 18:42:00,
2013-05-09 14:47:00,57.4,56.8,29.90,WSW,248,0.0,0.0,98,0.27,,,0.60,meteohub,2013-05-09 18:47:00,
2013-05-09 14:52:00,57.4,56.8,29.90,WSW,249,0.0,0.0,98,0.24,,,0.60,meteohub,2013-05-09 18:52:00,
2013-05-09 14:57:00,57.4,56.8,29.90,WSW,247,0.0,0.0,98,0.21,,,0.60,meteohub,2013-05-09 18:57:00,
2013-05-09 15:02:00,57.6,57.0,29.89,WSW,247,0.0,0.0,98,0.18,,,0.60,meteohub,2013-05-09 19:02:00,
2013-05-09 15:07:00,57.7,57.4,29.89,ESE,115,0.0,0.0,99,0.14,,,0.60,meteohub,2013-05-09 19:07:00,
2013-05-09 15:12:00,57.9,57.6,29.89,East,91,0.0,0.0,99,0.10,,,0.61,meteohub,2013-05-09 19:12:00,
2013-05-09 15:17:00,58.3,57.9,29.89,East,91,0.0,0.0,99,0.06,,,0.61,meteohub,2013-05-09 19:17:00,
2013-05-09 15:22:00,58.6,58.3,29.89,East,88,0.0,1.0,99,0.05,,,0.61,meteohub,2013-05-09 19:22:00,
2013-05-09 15:27:00,59.0,58.6,29.89,East,87,0.0,1.0,99,0.03,,,0.61,meteohub,2013-05-09 19:27:00,
2013-05-09 15:32:00,59.2,58.8,29.88,East,87,0.0,1.0,99,0.02,,,0.61,meteohub,2013-05-09 19:32:00,
2013-05-09 15:37:00,59.4,59.0,29.88,East,87,0.0,0.0,99,0.02,,,0.61,meteohub,2013-05-09 19:37:00,
2013-05-09 15:42:00,59.5,59.2,29.88,East,87,0.0,0.0,99,0.01,,,0.61,meteohub,2013-05-09 19:42:00,
2013-05-09 15:47:00,59.7,59.4,29.88,East,87,0.0,0.0,99,0.01,,,0.61,meteohub,2013-05-09 19:47:00,
2013-05-09 15:52:00,59.7,59.4,29.88,East,87,0.0,0.0,99,0.01,,,0.61,meteohub,2013-05-09 19:52:00,
2013-05-09 15:57:00,59.7,59.2,29.88,East,96,0.0,1.0,98,0.01,,,0.61,meteohub,2013-05-09 19:57:00,
2013-05-09 16:02:00,60.1,59.7,29.88,WSW,239,0.0,1.0,99,0.01,,,0.61,meteohub,2013-05-09 20:02:00,
2013-05-09 16:07:00,60.1,59.5,29.88,WSW,239,0.0,1.0,98,0.00,,,0.61,meteohub,2013-05-09 20:07:00,
2013-05-09 16:12:00,60.1,59.5,29.88,WSW,239,0.0,0.0,98,0.00,,,0.61,meteohub,2013-05-09 20:12:00,
2013-05-09 16:17:00,60.1,59.5,29.88,WSW,239,0.0,0.0,98,0.00,,,0.61,meteohub,2013-05-09 20:17:00,
2013-05-09 16:22:00,60.4,60.1,29.88,WSW,238,0.0,0.0,99,0.00,,,0.61,meteohub,2013-05-09 20:22:00,
2013-05-09 16:27:00,60.6,60.3,29.88,East,83,0.0,0.0,99,0.00,,,0.61,meteohub,2013-05-09 20:27:00,
2013-05-09 16:32:00,61.2,60.8,29.88,East,84,0.0,0.0,99,0.00,,,0.61,meteohub,2013-05-09 20:32:00,
2013-05-09 16:37:00,61.3,61.0,29.88,East,83,0.0,0.0,99,0.00,,,0.61,meteohub,2013-05-09 20:37:00,
2013-05-09 16:42:00,61.5,61.0,29.88,East,84,0.0,0.0,98,0.00,,,0.61,meteohub,2013-05-09 20:42:00,
2013-05-09 16:47:00,61.5,61.0,29.88,East,83,0.0,0.0,98,0.00,,,0.61,meteohub,2013-05-09 20:47:00,
2013-05-09 16:52:00,61.5,61.0,29.88,NE,53,0.0,0.0,98,0.00,,,0.61,meteohub,2013-05-09 20:52:00,
2013-05-09 16:57:00,61.7,61.2,29.88,NE,53,0.0,0.0,98,0.00,,,0.61,meteohub,2013-05-09 20:57:00,
2013-05-09 17:02:00,61.9,61.3,29.88,NE,54,0.0,0.0,98,0.00,,,0.61,meteohub,2013-05-09 21:02:00,
2013-05-09 17:07:00,62.1,61.5,29.88,ENE,75,0.0,0.0,98,0.00,,,0.61,meteohub,2013-05-09 21:07:00,
2013-05-09 17:12:00,62.1,61.5,29.88,ENE,74,0.0,0.0,98,0.00,,,0.61,meteohub,2013-05-09 21:12:00,
2013-05-09 17:17:00,61.9,61.3,29.88,East,80,0.0,0.0,98,0.00,,,0.61,meteohub,2013-05-09 21:17:00,
2013-05-09 17:22:00,61.9,61.3,29.88,East,81,0.0,0.0,98,0.00,,,0.61,meteohub,2013-05-09 21:22:00,
2013-05-09 17:27:00,61.9,61.3,29.88,East,80,0.0,0.0,98,0.00,,,0.61,meteohub,2013-05-09 21:27:00,
2013-05-09 17:32:00,62.1,61.5,29.88,East,80,0.0,0.0,98,0.00,,,0.61,meteohub,2013-05-09 21:32:00,
2013-05-09 17:37:00,62.2,61.7,29.88,East,80,0.0,0.0,98,0.00,,,0.61,meteohub,2013-05-09 21:37:00,
2013-05-09 17:42:00,62.2,61.3,29.88,East,79,0.0,0.0,97,0.00,,,0.61,meteohub,2013-05-09 21:42:00,
2013-05-09 17:47:00,62.4,61.5,29.88,SW,228,0.0,4.0,97,0.00,,,0.61,meteohub,2013-05-09 21:47:00,
2013-05-09 17:51:00,62.4,61.5,29.88,WSW,238,0.0,4.0,97,0.00,,,0.61,meteohub,2013-05-09 21:51:00,
2013-05-09 17:56:00,62.4,61.5,29.88,WSW,238,0.0,4.0,97,0.00,,,0.61,meteohub,2013-05-09 21:56:00,
2013-05-09 18:01:00,62.2,61.2,29.88,WSW,238,0.0,1.0,96,0.00,,,0.61,meteohub,2013-05-09 22:01:00,
2013-05-09 18:07:00,62.2,61.2,29.88,WSW,238,0.0,1.0,96,0.00,,,0.61,meteohub,2013-05-09 22:07:00,
2013-05-09 18:12:00,62.2,61.2,29.88,WSW,238,0.0,0.0,96,0.00,,,0.61,meteohub,2013-05-09 22:12:00,
2013-05-09 18:17:00,62.2,61.2,29.88,WSW,252,0.0,0.0,96,0.00,,,0.61,meteohub,2013-05-09 22:17:00,
2013-05-09 18:22:00,62.2,61.2,29.88,WSW,253,0.0,0.0,96,0.00,,,0.61,meteohub,2013-05-09 22:22:00,
2013-05-09 18:27:00,62.4,61.3,29.88,WSW,253,0.0,0.0,96,0.00,,,0.61,meteohub,2013-05-09 22:27:00,
2013-05-09 18:32:00,62.4,61.0,29.88,WSW,253,0.0,0.0,95,0.00,,,0.61,meteohub,2013-05-09 22:32:00,
2013-05-09 18:37:00,62.4,61.0,29.88,WSW,253,0.0,0.0,95,0.00,,,0.61,meteohub,2013-05-09 22:37:00,
2013-05-09 18:42:00,62.2,60.8,29.88,WSW,253,0.0,0.0,95,0.00,,,0.61,meteohub,2013-05-09 22:42:00,
2013-05-09 18:47:00,62.1,60.6,29.88,WSW,252,0.0,0.0,95,0.00,,,0.61,meteohub,2013-05-09 22:47:00,
2013-05-09 18:52:00,62.1,60.6,29.88,WSW,253,0.0,0.0,95,0.00,,,0.61,meteohub,2013-05-09 22:52:00,
2013-05-09 18:56:00,61.9,60.4,29.88,WSW,253,0.0,0.0,95,0.00,,,0.61,meteohub,2013-05-09 22:56:00,
2013-05-09 19:02:00,61.9,60.4,29.89,WSW,253,0.0,0.0,95,0.00,,,0.61,meteohub,2013-05-09 23:02:00,
2013-05-09 19:07:00,61.9,60.4,29.89,WSW,253,0.0,0.0,95,0.00,,,0.61,meteohub,2013-05-09 23:07:00,
2013-05-09 19:12:00,61.7,60.3,29.89,WSW,253,0.0,0.0,95,0.00,,,0.61,meteohub,2013-05-09 23:12:00,
2013-05-09 19:17:00,61.5,60.1,29.89,WSW,253,0.0,0.0,95,0.00,,,0.61,meteohub,2013-05-09 23:17:00,
2013-05-09 19:22:00,61.5,60.1,29.90,WSW,253,0.0,0.0,95,0.00,,,0.61,meteohub,2013-05-09 23:22:00,
2013-05-09 19:27:00,61.3,59.9,29.90,WSW,253,0.0,0.0,95,0.00,,,0.61,meteohub,2013-05-09 23:27:00,
2013-05-09 19:32:00,61.3,59.9,29.90,WSW,253,0.0,0.0,95,0.00,,,0.61,meteohub,2013-05-09 23:32:00,
2013-05-09 19:37:00,61.2,59.7,29.90,WSW,253,0.0,0.0,95,0.00,,,0.61,meteohub,2013-05-09 23:37:00,
2013-05-09 19:42:00,61.2,59.7,29.90,WSW,253,0.0,0.0,95,0.00,,,0.61,meteohub,2013-05-09 23:42:00,
2013-05-09 19:47:00,61.0,59.5,29.90,WSW,253,0.0,0.0,95,0.00,,,0.61,meteohub,2013-05-09 23:47:00,
2013-05-09 19:52:00,60.6,59.2,29.90,WSW,253,0.0,0.0,95,0.00,,,0.61,meteohub,2013-05-09 23:52:00,
2013-05-09 19:57:00,60.4,59.0,29.90,WSW,253,0.0,0.0,95,0.00,,,0.61,meteohub,2013-05-09 23:57:00,
2013-05-09 20:02:00,60.3,58.8,29.90,WSW,253,0.0,0.0,95,0.00,,,0.61,meteohub,2013-05-10 00:02:00,
2013-05-09 20:07:00,60.1,58.6,29.90,WSW,253,0.0,0.0,95,0.00,,,0.61,meteohub,2013-05-10 00:07:00,
2013-05-09 20:12:00,59.9,58.5,29.90,WSW,253,0.0,0.0,95,0.00,,,0.61,meteohub,2013-05-10 00:12:00,
2013-05-09 20:17:00,59.7,58.3,29.90,WSW,253,0.0,0.0,95,0.00,,,0.61,meteohub,2013-05-10 00:17:00,
2013-05-09 20:22:00,59.5,58.1,29.91,WSW,253,0.0,0.0,95,0.00,,,0.61,meteohub,2013-05-10 00:22:00,
2013-05-09 20:27:00,59.4,57.9,29.91,WSW,253,0.0,0.0,95,0.00,,,0.61,meteohub,2013-05-10 00:27:00,
2013-05-09 20:32:00,59.2,57.7,29.91,WSW,252,0.0,0.0,95,0.00,,,0.61,meteohub,2013-05-10 00:32:00,
2013-05-09 20:36:00,59.2,57.7,29.91,WSW,253,0.0,0.0,95,0.00,,,0.61,meteohub,2013-05-10 00:36:00,
2013-05-09 20:41:00,59.0,57.9,29.91,WSW,253,0.0,0.0,96,0.00,,,0.61,meteohub,2013-05-10 00:41:00,
2013-05-09 20:46:00,58.8,57.7,29.91,WSW,253,0.0,0.0,96,0.00,,,0.61,meteohub,2013-05-10 00:46:00,
2013-05-09 20:51:00,58.8,57.7,29.91,WSW,253,0.0,0.0,96,0.00,,,0.61,meteohub,2013-05-10 00:51:00,
2013-05-09 20:56:00,58.8,57.7,29.91,WSW,253,0.0,0.0,96,0.00,,,0.61,meteohub,2013-05-10 00:56:00,
2013-05-09 21:01:00,58.6,57.6,29.91,WSW,252,0.0,0.0,96,0.00,,,0.61,meteohub,2013-05-10 01:01:00,
2013-05-09 21:06:00,58.6,57.6,29.92,WSW,253,0.0,0.0,96,0.00,,,0.61,meteohub,2013-05-10 01:06:00,
2013-05-09 21:11:00,58.6,57.6,29.92,WSW,253,0.0,0.0,96,0.00,,,0.61,meteohub,2013-05-10 01:11:00,
2013-05-09 21:16:00,58.6,57.6,29.92,WSW,253,0.0,0.0,96,0.00,,,0.61,meteohub,2013-05-10 01:16:00,
2013-05-09 21:21:00,58.6,57.6,29.92,WSW,253,0.0,0.0,96,0.00,,,0.61,meteohub,2013-05-10 01:21:00,
2013-05-09 21:26:00,58.6,57.6,29.92,WSW,253,0.0,0.0,96,0.00,,,0.61,meteohub,2013-05-10 01:26:00,
2013-05-09 21:31:00,58.6,57.7,29.92,WSW,253,0.0,0.0,97,0.00,,,0.61,meteohub,2013-05-10 01:31:00,
2013-05-09 21:36:00,58.6,57.7,29.93,WSW,253,0.0,0.0,97,0.00,,,0.61,meteohub,2013-05-10 01:36:00,
2013-05-09 21:41:00,58.6,57.7,29.93,WSW,253,0.0,0.0,97,0.00,,,0.61,meteohub,2013-05-10 01:41:00,
2013-05-09 21:46:00,58.6,57.7,29.92,WSW,253,0.0,0.0,97,0.00,,,0.61,meteohub,2013-05-10 01:46:00,
2013-05-09 21:51:00,58.5,57.6,29.92,WSW,253,0.0,0.0,97,0.00,,,0.61,meteohub,2013-05-10 01:51:00,
2013-05-09 21:56:00,58.5,57.4,29.92,WSW,252,0.0,0.0,96,0.00,,,0.61,meteohub,2013-05-10 01:56:00,
2013-05-09 22:01:00,58.3,57.4,29.92,WSW,253,0.0,0.0,97,0.00,,,0.61,meteohub,2013-05-10 02:01:00,
2013-05-09 22:06:00,58.1,57.2,29.92,WSW,252,0.0,0.0,97,0.00,,,0.61,meteohub,2013-05-10 02:06:00,
2013-05-09 22:11:00,57.9,57.0,29.92,WSW,253,0.0,0.0,97,0.00,,,0.61,meteohub,2013-05-10 02:11:00,
2013-05-09 22:16:00,57.7,56.8,29.92,WSW,252,0.0,0.0,97,0.00,,,0.61,meteohub,2013-05-10 02:16:00,
2013-05-09 22:21:00,57.7,56.8,29.92,WSW,253,0.0,0.0,97,0.00,,,0.61,meteohub,2013-05-10 02:21:00,
2013-05-09 22:26:00,57.7,56.8,29.92,WSW,252,0.0,0.0,97,0.00,,,0.61,meteohub,2013-05-10 02:26:00,
2013-05-09 22:31:00,57.6,56.7,29.92,WSW,253,0.0,0.0,97,0.00,,,0.61,meteohub,2013-05-10 02:31:00,
2013-05-09 22:36:00,57.4,56.5,29.92,WSW,253,0.0,0.0,97,0.00,,,0.61,meteohub,2013-05-10 02:36:00,
2013-05-09 22:41:00,57.2,56.3,29.92,WSW,253,0.0,0.0,97,0.00,,,0.61,meteohub,2013-05-10 02:41:00,
2013-05-09 22:46:00,57.0,56.1,29.92,WSW,253,0.0,0.0,97,0.00,,,0.61,meteohub,2013-05-10 02:46:00,
2013-05-09 22:51:00,56.8,55.9,29.92,WSW,253,0.0,0.0,97,0.00,,,0.61,meteohub,2013-05-10 02:51:00,
2013-05-09 22:56:00,56.8,55.9,29.92,WSW,253,0.0,0.0,97,0.00,,,0.61,meteohub,2013-05-10 02:56:00,
2013-05-09 23:01:00,56.8,55.9,29.92,WSW,253,0.0,0.0,97,0.00,,,0.61,meteohub,2013-05-10 03:01:00,
2013-05-09 23:06:00,56.7,55.8,29.92,WSW,252,0.0,0.0,97,0.00,,,0.61,meteohub,2013-05-10 03:06:00,
2013-05-09 23:11:00,56.7,55.8,29.92,WSW,253,0.0,0.0,97,0.00,,,0.61,meteohub,2013-05-10 03:11:00,
2013-05-09 23:17:00,56.7,55.8,29.92,WSW,253,0.0,0.0,97,0.00,,,0.61,meteohub,2013-05-10 03:17:00,
2013-05-09 23:22:00,56.5,55.6,29.92,WSW,253,0.0,0.0,97,0.00,,,0.61,meteohub,2013-05-10 03:22:00,
2013-05-09 23:27:00,56.5,55.6,29.92,WSW,252,0.0,0.0,97,0.00,,,0.61,meteohub,2013-05-10 03:27:00,
2013-05-09 23:32:00,56.3,55.4,29.92,WSW,252,0.0,0.0,97,0.00,,,0.61,meteohub,2013-05-10 03:32:00,
2013-05-09 23:37:00,56.1,55.2,29.92,WSW,253,0.0,0.0,97,0.00,,,0.61,meteohub,2013-05-10 03:37:00,
2013-05-09 23:42:00,56.1,55.2,29.92,WSW,253,0.0,0.0,97,0.00,,,0.61,meteohub,2013-05-10 03:42:00,
2013-05-09 23:47:00,55.9,55.0,29.92,WSW,253,0.0,0.0,97,0.00,,,0.61,meteohub,2013-05-10 03:47:00,
2013-05-09 23:52:00,55.9,55.0,29.92,WSW,253,0.0,0.0,97,0.00,,,0.61,meteohub,2013-05-10 03:52:00,
2013-05-09 23:57:00,55.9,55.0,29.92,WSW,252,0.0,0.0,97,0.00,,,0.61,meteohub,2013-05-10 03:57:00,